sensor_id;sensor_type;location;lat;lon;timestamp;P1;durP1;ratioP1;P2;durP2;ratioP2
7647;SDS011;3866;48.020;11.720;2022-08-02T00:00:01;2.60;;;1.27;;
7647;SDS011;3866;48.020;11.720;2022-08-02T00:02:29;2.33;;;1.40;;
7647;SDS011;3866;48.020;11.720;2022-08-02T00:04:56;1.20;;;1.07;;
7647;SDS011;3866;48.020;11.720;2022-08-02T00:07:25;1.33;;;1.23;;
7647;SDS011;3866;48.020;11.720;2022-08-02T00:09:52;1.67;;;1.23;;
7647;SDS011;3866;48.020;11.720;2022-08-02T00:12:19;2.60;;;1.17;;
7647;SDS011;3866;48.020;11.720;2022-08-02T00:14:46;0.90;;;0.90;;
7647;SDS011;3866;48.020;11.720;2022-08-02T00:17:13;2.07;;;1.33;;
7647;SDS011;3866;48.020;11.720;2022-08-02T00:19:40;2.17;;;1.23;;
7647;SDS011;3866;48.020;11.720;2022-08-02T00:22:07;1.60;;;1.37;;
7647;SDS011;3866;48.020;11.720;2022-08-02T00:24:35;1.37;;;1.00;;
7647;SDS011;3866;48.020;11.720;2022-08-02T00:27:02;1.30;;;1.13;;
7647;SDS011;3866;48.020;11.720;2022-08-02T00:29:31;1.67;;;1.57;;
7647;SDS011;3866;48.020;11.720;2022-08-02T00:31:59;1.10;;;1.00;;
7647;SDS011;3866;48.020;11.720;2022-08-02T00:34:25;1.30;;;1.20;;
7647;SDS011;3866;48.020;11.720;2022-08-02T00:36:52;1.83;;;1.37;;
7647;SDS011;3866;48.020;11.720;2022-08-02T00:39:19;1.40;;;1.30;;
7647;SDS011;3866;48.020;11.720;2022-08-02T00:41:51;1.60;;;1.30;;
7647;SDS011;3866;48.020;11.720;2022-08-02T00:44:19;1.30;;;1.20;;
7647;SDS011;3866;48.020;11.720;2022-08-02T00:46:46;1.83;;;1.43;;
7647;SDS011;3866;48.020;11.720;2022-08-02T00:49:14;2.03;;;1.20;;
7647;SDS011;3866;48.020;11.720;2022-08-02T00:51:40;1.43;;;1.33;;
7647;SDS011;3866;48.020;11.720;2022-08-02T00:54:08;3.00;;;1.40;;
7647;SDS011;3866;48.020;11.720;2022-08-02T00:56:34;1.60;;;1.50;;
7647;SDS011;3866;48.020;11.720;2022-08-02T00:59:03;1.73;;;1.63;;
7647;SDS011;3866;48.020;11.720;2022-08-02T01:01:30;1.30;;;1.20;;
7647;SDS011;3866;48.020;11.720;2022-08-02T01:04:04;3.43;;;1.40;;
7647;SDS011;3866;48.020;11.720;2022-08-02T01:06:32;3.23;;;1.50;;
7647;SDS011;3866;48.020;11.720;2022-08-02T01:08:59;1.13;;;1.03;;
7647;SDS011;3866;48.020;11.720;2022-08-02T01:11:26;1.50;;;1.40;;
7647;SDS011;3866;48.020;11.720;2022-08-02T01:13:54;1.30;;;1.20;;
7647;SDS011;3866;48.020;11.720;2022-08-02T01:16:25;1.40;;;1.30;;
7647;SDS011;3866;48.020;11.720;2022-08-02T01:18:57;1.80;;;0.97;;
7647;SDS011;3866;48.020;11.720;2022-08-02T01:21:45;1.03;;;0.93;;
7647;SDS011;3866;48.020;11.720;2022-08-02T01:24:23;2.80;;;1.40;;
7647;SDS011;3866;48.020;11.720;2022-08-02T01:27:06;1.30;;;1.20;;
7647;SDS011;3866;48.020;11.720;2022-08-02T01:29:45;2.37;;;1.20;;
7647;SDS011;3866;48.020;11.720;2022-08-02T01:32:20;1.00;;;1.00;;
7647;SDS011;3866;48.020;11.720;2022-08-02T01:34:53;1.27;;;1.10;;
7647;SDS011;3866;48.020;11.720;2022-08-02T01:37:25;3.87;;;1.40;;
7647;SDS011;3866;48.020;11.720;2022-08-02T01:39:59;1.47;;;1.37;;
7647;SDS011;3866;48.020;11.720;2022-08-02T01:42:28;1.40;;;1.30;;
7647;SDS011;3866;48.020;11.720;2022-08-02T01:44:59;1.53;;;1.03;;
7647;SDS011;3866;48.020;11.720;2022-08-02T01:47:29;1.30;;;1.10;;
7647;SDS011;3866;48.020;11.720;2022-08-02T01:50:00;1.30;;;1.20;;
7647;SDS011;3866;48.020;11.720;2022-08-02T01:52:31;1.53;;;1.27;;
7647;SDS011;3866;48.020;11.720;2022-08-02T01:55:02;1.27;;;1.17;;
7647;SDS011;3866;48.020;11.720;2022-08-02T01:57:32;2.07;;;1.03;;
7647;SDS011;3866;48.020;11.720;2022-08-02T02:00:04;1.40;;;1.20;;
7647;SDS011;3866;48.020;11.720;2022-08-02T02:02:33;1.50;;;1.40;;
7647;SDS011;3866;48.020;11.720;2022-08-02T02:05:05;1.43;;;1.30;;
7647;SDS011;3866;48.020;11.720;2022-08-02T02:07:33;1.90;;;1.23;;
7647;SDS011;3866;48.020;11.720;2022-08-02T02:10:01;1.27;;;1.20;;
7647;SDS011;3866;48.020;11.720;2022-08-02T02:12:29;1.60;;;1.20;;
7647;SDS011;3866;48.020;11.720;2022-08-02T02:14:59;1.30;;;1.23;;
7647;SDS011;3866;48.020;11.720;2022-08-02T02:17:29;2.37;;;1.43;;
7647;SDS011;3866;48.020;11.720;2022-08-02T02:19:57;1.50;;;1.30;;
7647;SDS011;3866;48.020;11.720;2022-08-02T02:22:26;1.57;;;1.33;;
7647;SDS011;3866;48.020;11.720;2022-08-02T02:24:53;2.57;;;1.47;;
7647;SDS011;3866;48.020;11.720;2022-08-02T02:27:20;2.17;;;1.27;;
7647;SDS011;3866;48.020;11.720;2022-08-02T02:29:49;3.30;;;1.63;;
7647;SDS011;3866;48.020;11.720;2022-08-02T02:32:18;1.87;;;1.70;;
7647;SDS011;3866;48.020;11.720;2022-08-02T02:34:46;1.57;;;1.47;;
7647;SDS011;3866;48.020;11.720;2022-08-02T02:37:16;1.57;;;1.40;;
7647;SDS011;3866;48.020;11.720;2022-08-02T02:39:47;2.53;;;1.20;;
7647;SDS011;3866;48.020;11.720;2022-08-02T02:42:16;2.90;;;1.57;;
7647;SDS011;3866;48.020;11.720;2022-08-02T02:44:47;1.87;;;1.50;;
7647;SDS011;3866;48.020;11.720;2022-08-02T02:47:15;1.43;;;1.33;;
7647;SDS011;3866;48.020;11.720;2022-08-02T02:49:46;1.60;;;1.47;;
7647;SDS011;3866;48.020;11.720;2022-08-02T02:52:16;1.90;;;1.43;;
7647;SDS011;3866;48.020;11.720;2022-08-02T02:54:45;1.33;;;1.23;;
7647;SDS011;3866;48.020;11.720;2022-08-02T02:57:14;1.60;;;1.50;;
7647;SDS011;3866;48.020;11.720;2022-08-02T02:59:42;2.67;;;1.50;;
7647;SDS011;3866;48.020;11.720;2022-08-02T03:02:09;1.77;;;1.43;;
7647;SDS011;3866;48.020;11.720;2022-08-02T03:04:39;1.80;;;1.70;;
7647;SDS011;3866;48.020;11.720;2022-08-02T03:07:07;2.27;;;1.57;;
7647;SDS011;3866;48.020;11.720;2022-08-02T03:09:35;1.50;;;1.40;;
7647;SDS011;3866;48.020;11.720;2022-08-02T03:12:02;2.43;;;1.60;;
7647;SDS011;3866;48.020;11.720;2022-08-02T03:14:29;3.07;;;1.70;;
7647;SDS011;3866;48.020;11.720;2022-08-02T03:16:57;2.43;;;1.90;;
7647;SDS011;3866;48.020;11.720;2022-08-02T03:19:24;2.03;;;1.67;;
7647;SDS011;3866;48.020;11.720;2022-08-02T03:21:52;2.23;;;1.43;;
7647;SDS011;3866;48.020;11.720;2022-08-02T03:24:19;1.40;;;1.30;;
7647;SDS011;3866;48.020;11.720;2022-08-02T03:26:46;1.87;;;1.40;;
7647;SDS011;3866;48.020;11.720;2022-08-02T03:29:13;3.33;;;1.40;;
7647;SDS011;3866;48.020;11.720;2022-08-02T03:31:40;1.53;;;1.43;;
7647;SDS011;3866;48.020;11.720;2022-08-02T03:34:10;1.83;;;1.70;;
7647;SDS011;3866;48.020;11.720;2022-08-02T03:36:37;2.30;;;1.50;;
7647;SDS011;3866;48.020;11.720;2022-08-02T03:39:08;2.57;;;1.70;;
7647;SDS011;3866;48.020;11.720;2022-08-02T03:41:37;2.60;;;1.23;;
7647;SDS011;3866;48.020;11.720;2022-08-02T03:44:06;1.53;;;1.40;;
7647;SDS011;3866;48.020;11.720;2022-08-02T03:46:34;2.83;;;1.30;;
7647;SDS011;3866;48.020;11.720;2022-08-02T03:49:03;1.50;;;1.40;;
7647;SDS011;3866;48.020;11.720;2022-08-02T03:51:32;1.47;;;1.37;;
7647;SDS011;3866;48.020;11.720;2022-08-02T03:53:59;1.90;;;1.50;;
7647;SDS011;3866;48.020;11.720;2022-08-02T03:56:28;1.50;;;1.40;;
7647;SDS011;3866;48.020;11.720;2022-08-02T03:59:04;5.17;;;1.80;;
7647;SDS011;3866;48.020;11.720;2022-08-02T04:01:32;1.60;;;1.50;;
7647;SDS011;3866;48.020;11.720;2022-08-02T04:03:59;2.53;;;1.33;;
7647;SDS011;3866;48.020;11.720;2022-08-02T04:06:25;1.43;;;1.33;;
7647;SDS011;3866;48.020;11.720;2022-08-02T04:08:52;1.80;;;1.70;;
7647;SDS011;3866;48.020;11.720;2022-08-02T04:11:19;3.97;;;1.50;;
7647;SDS011;3866;48.020;11.720;2022-08-02T04:14:00;2.43;;;1.33;;
7647;SDS011;3866;48.020;11.720;2022-08-02T04:16:32;1.53;;;1.43;;
7647;SDS011;3866;48.020;11.720;2022-08-02T04:19:04;1.40;;;1.30;;
7647;SDS011;3866;48.020;11.720;2022-08-02T04:21:34;1.50;;;1.20;;
7647;SDS011;3866;48.020;11.720;2022-08-02T04:24:04;1.70;;;1.60;;
7647;SDS011;3866;48.020;11.720;2022-08-02T04:26:32;3.80;;;1.70;;
7647;SDS011;3866;48.020;11.720;2022-08-02T04:29:02;1.57;;;1.37;;
7647;SDS011;3866;48.020;11.720;2022-08-02T04:31:30;2.60;;;1.30;;
7647;SDS011;3866;48.020;11.720;2022-08-02T04:33:58;1.47;;;1.23;;
7647;SDS011;3866;48.020;11.720;2022-08-02T04:36:25;1.30;;;1.20;;
7647;SDS011;3866;48.020;11.720;2022-08-02T04:38:52;3.50;;;1.60;;
7647;SDS011;3866;48.020;11.720;2022-08-02T04:41:19;1.50;;;1.27;;
7647;SDS011;3866;48.020;11.720;2022-08-02T04:43:46;1.47;;;1.23;;
7647;SDS011;3866;48.020;11.720;2022-08-02T04:46:14;2.67;;;1.30;;
7647;SDS011;3866;48.020;11.720;2022-08-02T04:48:41;3.27;;;1.67;;
7647;SDS011;3866;48.020;11.720;2022-08-02T04:51:07;1.50;;;1.37;;
7647;SDS011;3866;48.020;11.720;2022-08-02T04:53:34;1.57;;;1.47;;
7647;SDS011;3866;48.020;11.720;2022-08-02T04:56:01;2.17;;;1.10;;
7647;SDS011;3866;48.020;11.720;2022-08-02T04:58:28;1.43;;;1.33;;
7647;SDS011;3866;48.020;11.720;2022-08-02T05:00:55;1.53;;;1.43;;
7647;SDS011;3866;48.020;11.720;2022-08-02T05:03:23;2.83;;;1.20;;
7647;SDS011;3866;48.020;11.720;2022-08-02T05:05:50;1.70;;;1.60;;
7647;SDS011;3866;48.020;11.720;2022-08-02T05:08:17;1.80;;;1.70;;
7647;SDS011;3866;48.020;11.720;2022-08-02T05:10:44;1.70;;;1.60;;
7647;SDS011;3866;48.020;11.720;2022-08-02T05:13:11;1.77;;;1.67;;
7647;SDS011;3866;48.020;11.720;2022-08-02T05:15:38;1.23;;;1.13;;
7647;SDS011;3866;48.020;11.720;2022-08-02T05:18:04;1.83;;;1.47;;
7647;SDS011;3866;48.020;11.720;2022-08-02T05:20:33;1.30;;;1.20;;
7647;SDS011;3866;48.020;11.720;2022-08-02T05:23:00;1.23;;;1.13;;
7647;SDS011;3866;48.020;11.720;2022-08-02T05:25:27;1.63;;;1.20;;
7647;SDS011;3866;48.020;11.720;2022-08-02T05:27:54;1.33;;;1.23;;
7647;SDS011;3866;48.020;11.720;2022-08-02T05:30:21;3.30;;;1.23;;
7647;SDS011;3866;48.020;11.720;2022-08-02T05:32:48;2.57;;;1.40;;
7647;SDS011;3866;48.020;11.720;2022-08-02T05:35:17;1.77;;;1.20;;
7647;SDS011;3866;48.020;11.720;2022-08-02T05:37:46;1.40;;;1.37;;
7647;SDS011;3866;48.020;11.720;2022-08-02T05:40:13;1.87;;;1.77;;
7647;SDS011;3866;48.020;11.720;2022-08-02T05:42:40;0.93;;;0.93;;
7647;SDS011;3866;48.020;11.720;2022-08-02T05:45:08;1.73;;;1.40;;
7647;SDS011;3866;48.020;11.720;2022-08-02T05:47:35;1.57;;;1.10;;
7647;SDS011;3866;48.020;11.720;2022-08-02T05:50:03;2.97;;;1.33;;
7647;SDS011;3866;48.020;11.720;2022-08-02T05:52:40;1.93;;;1.10;;
7647;SDS011;3866;48.020;11.720;2022-08-02T05:55:15;3.27;;;1.27;;
7647;SDS011;3866;48.020;11.720;2022-08-02T05:57:47;1.47;;;1.20;;
7647;SDS011;3866;48.020;11.720;2022-08-02T06:00:18;3.70;;;1.20;;
7647;SDS011;3866;48.020;11.720;2022-08-02T06:02:53;1.43;;;1.13;;
7647;SDS011;3866;48.020;11.720;2022-08-02T06:05:28;1.20;;;1.20;;
7647;SDS011;3866;48.020;11.720;2022-08-02T06:08:02;0.70;;;0.70;;
7647;SDS011;3866;48.020;11.720;2022-08-02T06:10:34;1.67;;;1.10;;
7647;SDS011;3866;48.020;11.720;2022-08-02T06:13:05;1.00;;;0.83;;
7647;SDS011;3866;48.020;11.720;2022-08-02T06:15:34;1.23;;;0.87;;
7647;SDS011;3866;48.020;11.720;2022-08-02T06:18:01;1.63;;;1.07;;
7647;SDS011;3866;48.020;11.720;2022-08-02T06:20:29;1.60;;;0.97;;
7647;SDS011;3866;48.020;11.720;2022-08-02T06:22:59;0.87;;;0.83;;
7647;SDS011;3866;48.020;11.720;2022-08-02T06:25:28;1.10;;;1.10;;
7647;SDS011;3866;48.020;11.720;2022-08-02T06:27:58;1.90;;;1.80;;
7647;SDS011;3866;48.020;11.720;2022-08-02T06:30:26;1.20;;;1.10;;
7647;SDS011;3866;48.020;11.720;2022-08-02T06:32:54;1.97;;;0.80;;
7647;SDS011;3866;48.020;11.720;2022-08-02T06:35:21;0.60;;;0.60;;
7647;SDS011;3866;48.020;11.720;2022-08-02T06:37:51;0.87;;;0.70;;
7647;SDS011;3866;48.020;11.720;2022-08-02T06:40:25;1.30;;;0.87;;
7647;SDS011;3866;48.020;11.720;2022-08-02T06:43:04;1.60;;;0.77;;
7647;SDS011;3866;48.020;11.720;2022-08-02T06:45:37;3.07;;;0.70;;
7647;SDS011;3866;48.020;11.720;2022-08-02T06:48:04;1.00;;;0.90;;
7647;SDS011;3866;48.020;11.720;2022-08-02T06:50:32;1.20;;;0.80;;
7647;SDS011;3866;48.020;11.720;2022-08-02T06:52:59;1.03;;;0.93;;
7647;SDS011;3866;48.020;11.720;2022-08-02T06:55:26;1.13;;;0.97;;
7647;SDS011;3866;48.020;11.720;2022-08-02T06:57:57;1.57;;;0.77;;
7647;SDS011;3866;48.020;11.720;2022-08-02T07:00:25;1.80;;;0.93;;
7647;SDS011;3866;48.020;11.720;2022-08-02T07:02:52;3.60;;;1.00;;
7647;SDS011;3866;48.020;11.720;2022-08-02T07:05:19;0.60;;;0.60;;
7647;SDS011;3866;48.020;11.720;2022-08-02T07:07:45;1.27;;;0.60;;
7647;SDS011;3866;48.020;11.720;2022-08-02T07:10:12;0.97;;;0.77;;
7647;SDS011;3866;48.020;11.720;2022-08-02T07:12:39;1.37;;;0.87;;
7647;SDS011;3866;48.020;11.720;2022-08-02T07:15:08;1.47;;;0.87;;
7647;SDS011;3866;48.020;11.720;2022-08-02T07:17:37;1.47;;;0.67;;
7647;SDS011;3866;48.020;11.720;2022-08-02T07:20:05;2.30;;;0.77;;
7647;SDS011;3866;48.020;11.720;2022-08-02T07:22:33;1.37;;;0.90;;
7647;SDS011;3866;48.020;11.720;2022-08-02T07:25:00;2.10;;;1.90;;
7647;SDS011;3866;48.020;11.720;2022-08-02T07:27:30;1.13;;;1.07;;
7647;SDS011;3866;48.020;11.720;2022-08-02T07:29:57;0.77;;;0.67;;
7647;SDS011;3866;48.020;11.720;2022-08-02T07:32:27;1.13;;;1.03;;
7647;SDS011;3866;48.020;11.720;2022-08-02T07:34:55;0.70;;;0.67;;
7647;SDS011;3866;48.020;11.720;2022-08-02T07:37:23;1.30;;;0.67;;
7647;SDS011;3866;48.020;11.720;2022-08-02T07:39:51;0.77;;;0.77;;
7647;SDS011;3866;48.020;11.720;2022-08-02T07:42:18;1.13;;;0.63;;
7647;SDS011;3866;48.020;11.720;2022-08-02T07:44:45;0.60;;;0.60;;
7647;SDS011;3866;48.020;11.720;2022-08-02T07:47:12;1.67;;;0.60;;
7647;SDS011;3866;48.020;11.720;2022-08-02T07:49:40;1.65;;;0.68;;
7647;SDS011;3866;48.020;11.720;2022-08-02T07:52:07;1.85;;;0.88;;
7647;SDS011;3866;48.020;11.720;2022-08-02T07:54:34;1.10;;;0.60;;
7647;SDS011;3866;48.020;11.720;2022-08-02T07:57:01;2.88;;;0.50;;
7647;SDS011;3866;48.020;11.720;2022-08-02T07:59:29;1.45;;;0.77;;
7647;SDS011;3866;48.020;11.720;2022-08-02T08:01:56;0.47;;;0.47;;
7647;SDS011;3866;48.020;11.720;2022-08-02T08:04:22;0.65;;;0.65;;
7647;SDS011;3866;48.020;11.720;2022-08-02T08:06:52;3.65;;;1.05;;
7647;SDS011;3866;48.020;11.720;2022-08-02T08:09:19;1.30;;;0.75;;
7647;SDS011;3866;48.020;11.720;2022-08-02T08:11:46;3.30;;;0.68;;
7647;SDS011;3866;48.020;11.720;2022-08-02T08:14:13;0.85;;;0.63;;
7647;SDS011;3866;48.020;11.720;2022-08-02T08:16:40;0.70;;;0.50;;
7647;SDS011;3866;48.020;11.720;2022-08-02T08:19:07;1.10;;;0.80;;
7647;SDS011;3866;48.020;11.720;2022-08-02T08:21:34;0.80;;;0.55;;
7647;SDS011;3866;48.020;11.720;2022-08-02T08:24:03;0.88;;;0.60;;
7647;SDS011;3866;48.020;11.720;2022-08-02T08:26:30;1.25;;;0.47;;
7647;SDS011;3866;48.020;11.720;2022-08-02T08:28:57;0.75;;;0.60;;
7647;SDS011;3866;48.020;11.720;2022-08-02T08:31:25;0.52;;;0.50;;
7647;SDS011;3866;48.020;11.720;2022-08-02T08:33:52;0.63;;;0.50;;
7647;SDS011;3866;48.020;11.720;2022-08-02T08:36:20;0.60;;;0.52;;
7647;SDS011;3866;48.020;11.720;2022-08-02T08:38:47;0.60;;;0.55;;
7647;SDS011;3866;48.020;11.720;2022-08-02T08:41:16;1.00;;;0.50;;
7647;SDS011;3866;48.020;11.720;2022-08-02T08:43:44;2.05;;;0.50;;
7647;SDS011;3866;48.020;11.720;2022-08-02T08:46:16;1.90;;;0.68;;
7647;SDS011;3866;48.020;11.720;2022-08-02T08:48:49;1.63;;;0.88;;
7647;SDS011;3866;48.020;11.720;2022-08-02T08:51:23;1.58;;;0.65;;
7647;SDS011;3866;48.020;11.720;2022-08-02T08:53:56;0.40;;;0.40;;
7647;SDS011;3866;48.020;11.720;2022-08-02T08:56:29;0.93;;;0.65;;
7647;SDS011;3866;48.020;11.720;2022-08-02T08:58:59;0.70;;;0.50;;
7647;SDS011;3866;48.020;11.720;2022-08-02T09:01:27;2.17;;;0.60;;
7647;SDS011;3866;48.020;11.720;2022-08-02T09:03:54;0.63;;;0.50;;
7647;SDS011;3866;48.020;11.720;2022-08-02T09:06:22;0.50;;;0.50;;
7647;SDS011;3866;48.020;11.720;2022-08-02T09:08:49;0.60;;;0.60;;
7647;SDS011;3866;48.020;11.720;2022-08-02T09:11:16;0.60;;;0.60;;
7647;SDS011;3866;48.020;11.720;2022-08-02T09:13:49;0.60;;;0.50;;
7647;SDS011;3866;48.020;11.720;2022-08-02T09:16:28;2.70;;;0.60;;
7647;SDS011;3866;48.020;11.720;2022-08-02T09:18:56;0.80;;;0.80;;
7647;SDS011;3866;48.020;11.720;2022-08-02T09:21:32;0.63;;;0.60;;
7647;SDS011;3866;48.020;11.720;2022-08-02T09:24:01;0.60;;;0.60;;
7647;SDS011;3866;48.020;11.720;2022-08-02T09:26:40;1.00;;;0.60;;
7647;SDS011;3866;48.020;11.720;2022-08-02T09:29:09;1.47;;;0.50;;
7647;SDS011;3866;48.020;11.720;2022-08-02T09:31:36;0.60;;;0.60;;
7647;SDS011;3866;48.020;11.720;2022-08-02T09:34:03;1.80;;;0.60;;
7647;SDS011;3866;48.020;11.720;2022-08-02T09:36:36;1.07;;;0.80;;
7647;SDS011;3866;48.020;11.720;2022-08-02T09:39:04;1.73;;;0.60;;
7647;SDS011;3866;48.020;11.720;2022-08-02T09:41:33;0.90;;;0.70;;
7647;SDS011;3866;48.020;11.720;2022-08-02T09:44:02;0.50;;;0.50;;
7647;SDS011;3866;48.020;11.720;2022-08-02T09:46:32;0.60;;;0.53;;
7647;SDS011;3866;48.020;11.720;2022-08-02T09:49:02;1.73;;;0.40;;
7647;SDS011;3866;48.020;11.720;2022-08-02T09:51:31;1.87;;;0.80;;
7647;SDS011;3866;48.020;11.720;2022-08-02T09:54:00;0.60;;;0.60;;
7647;SDS011;3866;48.020;11.720;2022-08-02T09:56:38;1.53;;;0.60;;
7647;SDS011;3866;48.020;11.720;2022-08-02T09:59:07;0.87;;;0.50;;
7647;SDS011;3866;48.020;11.720;2022-08-02T10:01:36;1.50;;;0.70;;
7647;SDS011;3866;48.020;11.720;2022-08-02T10:04:04;0.60;;;0.60;;
7647;SDS011;3866;48.020;11.720;2022-08-02T10:06:34;0.57;;;0.57;;
7647;SDS011;3866;48.020;11.720;2022-08-02T10:09:02;2.27;;;0.77;;
7647;SDS011;3866;48.020;11.720;2022-08-02T10:11:29;0.53;;;0.53;;
7647;SDS011;3866;48.020;11.720;2022-08-02T10:13:57;0.70;;;0.53;;
7647;SDS011;3866;48.020;11.720;2022-08-02T10:16:25;0.60;;;0.60;;
7647;SDS011;3866;48.020;11.720;2022-08-02T10:18:55;0.50;;;0.50;;
7647;SDS011;3866;48.020;11.720;2022-08-02T10:21:25;0.83;;;0.80;;
7647;SDS011;3866;48.020;11.720;2022-08-02T10:23:59;1.30;;;0.60;;
7647;SDS011;3866;48.020;11.720;2022-08-02T10:26:31;1.40;;;0.80;;
7647;SDS011;3866;48.020;11.720;2022-08-02T10:28:58;0.57;;;0.57;;
7647;SDS011;3866;48.020;11.720;2022-08-02T10:31:26;1.90;;;0.50;;
7647;SDS011;3866;48.020;11.720;2022-08-02T10:34:00;0.43;;;0.40;;
7647;SDS011;3866;48.020;11.720;2022-08-02T10:36:28;0.70;;;0.43;;
7647;SDS011;3866;48.020;11.720;2022-08-02T10:38:57;0.60;;;0.60;;
7647;SDS011;3866;48.020;11.720;2022-08-02T10:41:38;0.50;;;0.50;;
7647;SDS011;3866;48.020;11.720;2022-08-02T10:44:06;0.70;;;0.70;;
7647;SDS011;3866;48.020;11.720;2022-08-02T10:46:33;1.20;;;0.60;;
7647;SDS011;3866;48.020;11.720;2022-08-02T10:49:06;0.63;;;0.63;;
7647;SDS011;3866;48.020;11.720;2022-08-02T10:54:39;0.87;;;0.60;;
7647;SDS011;3866;48.020;11.720;2022-08-02T10:57:18;0.60;;;0.60;;
7647;SDS011;3866;48.020;11.720;2022-08-02T10:59:46;0.67;;;0.47;;
7647;SDS011;3866;48.020;11.720;2022-08-02T11:02:31;2.40;;;0.50;;
7647;SDS011;3866;48.020;11.720;2022-08-02T11:05:03;1.17;;;0.77;;
7647;SDS011;3866;48.020;11.720;2022-08-02T11:07:32;0.37;;;0.37;;
7647;SDS011;3866;48.020;11.720;2022-08-02T11:12:57;1.80;;;0.47;;
7647;SDS011;3866;48.020;11.720;2022-08-02T11:15:25;0.57;;;0.50;;
7647;SDS011;3866;48.020;11.720;2022-08-02T11:17:52;0.70;;;0.50;;
7647;SDS011;3866;48.020;11.720;2022-08-02T11:20:21;0.40;;;0.40;;
7647;SDS011;3866;48.020;11.720;2022-08-02T11:22:50;0.70;;;0.40;;
7647;SDS011;3866;48.020;11.720;2022-08-02T11:25:30;1.00;;;0.70;;
7647;SDS011;3866;48.020;11.720;2022-08-02T11:27:58;0.57;;;0.57;;
7647;SDS011;3866;48.020;11.720;2022-08-02T11:30:33;0.63;;;0.50;;
7647;SDS011;3866;48.020;11.720;2022-08-02T11:33:00;0.40;;;0.40;;
7647;SDS011;3866;48.020;11.720;2022-08-02T11:35:32;0.70;;;0.57;;
7647;SDS011;3866;48.020;11.720;2022-08-02T11:38:13;0.50;;;0.50;;
7647;SDS011;3866;48.020;11.720;2022-08-02T11:40:41;0.60;;;0.50;;
7647;SDS011;3866;48.020;11.720;2022-08-02T11:43:20;0.37;;;0.37;;
7647;SDS011;3866;48.020;11.720;2022-08-02T11:45:48;0.57;;;0.30;;
7647;SDS011;3866;48.020;11.720;2022-08-02T11:48:29;0.70;;;0.30;;
7647;SDS011;3866;48.020;11.720;2022-08-02T11:51:06;0.70;;;0.60;;
7647;SDS011;3866;48.020;11.720;2022-08-02T11:53:41;0.57;;;0.47;;
7647;SDS011;3866;48.020;11.720;2022-08-02T11:56:10;1.13;;;0.50;;
7647;SDS011;3866;48.020;11.720;2022-08-02T11:58:37;0.57;;;0.57;;
7647;SDS011;3866;48.020;11.720;2022-08-02T12:01:04;0.50;;;0.50;;
7647;SDS011;3866;48.020;11.720;2022-08-02T12:03:35;0.50;;;0.50;;
7647;SDS011;3866;48.020;11.720;2022-08-02T12:06:02;1.67;;;0.60;;
7647;SDS011;3866;48.020;11.720;2022-08-02T12:08:30;1.07;;;0.50;;
7647;SDS011;3866;48.020;11.720;2022-08-02T12:10:59;2.37;;;0.53;;
7647;SDS011;3866;48.020;11.720;2022-08-02T12:13:28;0.53;;;0.30;;
7647;SDS011;3866;48.020;11.720;2022-08-02T12:16:09;0.77;;;0.67;;
7647;SDS011;3866;48.020;11.720;2022-08-02T12:18:50;1.02;;;0.57;;
7647;SDS011;3866;48.020;11.720;2022-08-02T12:21:34;0.38;;;0.35;;
7647;SDS011;3866;48.020;11.720;2022-08-02T12:24:03;0.30;;;0.30;;
7647;SDS011;3866;48.020;11.720;2022-08-02T12:26:39;0.45;;;0.45;;
7647;SDS011;3866;48.020;11.720;2022-08-02T12:29:07;1.58;;;0.45;;
7647;SDS011;3866;48.020;11.720;2022-08-02T12:31:38;0.32;;;0.30;;
7647;SDS011;3866;48.020;11.720;2022-08-02T12:34:13;1.30;;;0.40;;
7647;SDS011;3866;48.020;11.720;2022-08-02T12:36:42;0.32;;;0.32;;
7647;SDS011;3866;48.020;11.720;2022-08-02T12:39:31;0.30;;;0.30;;
7647;SDS011;3866;48.020;11.720;2022-08-02T12:42:07;1.10;;;0.22;;
7647;SDS011;3866;48.020;11.720;2022-08-02T12:44:35;0.20;;;0.20;;
7647;SDS011;3866;48.020;11.720;2022-08-02T12:47:04;0.30;;;0.30;;
7647;SDS011;3866;48.020;11.720;2022-08-02T12:49:31;0.30;;;0.30;;
7647;SDS011;3866;48.020;11.720;2022-08-02T12:51:58;0.90;;;0.43;;
7647;SDS011;3866;48.020;11.720;2022-08-02T12:54:28;0.90;;;0.40;;
7647;SDS011;3866;48.020;11.720;2022-08-02T12:56:57;1.20;;;0.40;;
7647;SDS011;3866;48.020;11.720;2022-08-02T12:59:36;0.30;;;0.30;;
7647;SDS011;3866;48.020;11.720;2022-08-02T13:02:05;1.00;;;0.40;;
7647;SDS011;3866;48.020;11.720;2022-08-02T13:04:34;0.60;;;0.30;;
7647;SDS011;3866;48.020;11.720;2022-08-02T13:07:01;0.75;;;0.30;;
7647;SDS011;3866;48.020;11.720;2022-08-02T13:09:35;0.55;;;0.50;;
7647;SDS011;3866;48.020;11.720;2022-08-02T13:12:03;0.45;;;0.30;;
7647;SDS011;3866;48.020;11.720;2022-08-02T13:14:31;0.40;;;0.25;;
7647;SDS011;3866;48.020;11.720;2022-08-02T13:16:59;1.67;;;0.30;;
7647;SDS011;3866;48.020;11.720;2022-08-02T13:19:26;0.40;;;0.30;;
7647;SDS011;3866;48.020;11.720;2022-08-02T13:21:53;1.48;;;0.35;;
7647;SDS011;3866;48.020;11.720;2022-08-02T13:24:20;0.70;;;0.30;;
7647;SDS011;3866;48.020;11.720;2022-08-02T13:26:48;0.30;;;0.30;;
7647;SDS011;3866;48.020;11.720;2022-08-02T13:29:15;1.85;;;0.30;;
7647;SDS011;3866;48.020;11.720;2022-08-02T13:31:42;0.68;;;0.40;;
7647;SDS011;3866;48.020;11.720;2022-08-02T13:34:09;0.57;;;0.30;;
7647;SDS011;3866;48.020;11.720;2022-08-02T13:36:36;1.23;;;0.40;;
7647;SDS011;3866;48.020;11.720;2022-08-02T13:39:03;0.30;;;0.30;;
7647;SDS011;3866;48.020;11.720;2022-08-02T13:41:30;0.38;;;0.38;;
7647;SDS011;3866;48.020;11.720;2022-08-02T13:43:59;0.22;;;0.22;;
7647;SDS011;3866;48.020;11.720;2022-08-02T13:46:26;0.70;;;0.40;;
7647;SDS011;3866;48.020;11.720;2022-08-02T13:48:53;1.95;;;0.30;;
7647;SDS011;3866;48.020;11.720;2022-08-02T13:51:20;0.68;;;0.40;;
7647;SDS011;3866;48.020;11.720;2022-08-02T13:53:46;0.22;;;0.22;;
7647;SDS011;3866;48.020;11.720;2022-08-02T13:56:13;0.40;;;0.40;;
7647;SDS011;3866;48.020;11.720;2022-08-02T13:58:40;0.70;;;0.30;;
7647;SDS011;3866;48.020;11.720;2022-08-02T14:01:09;0.83;;;0.30;;
7647;SDS011;3866;48.020;11.720;2022-08-02T14:03:35;0.30;;;0.30;;
7647;SDS011;3866;48.020;11.720;2022-08-02T14:06:02;1.60;;;0.40;;
7647;SDS011;3866;48.020;11.720;2022-08-02T14:08:31;0.23;;;0.20;;
7647;SDS011;3866;48.020;11.720;2022-08-02T14:10:58;0.80;;;0.70;;
7647;SDS011;3866;48.020;11.720;2022-08-02T14:13:24;0.30;;;0.23;;
7647;SDS011;3866;48.020;11.720;2022-08-02T14:15:51;1.57;;;0.50;;
7647;SDS011;3866;48.020;11.720;2022-08-02T14:18:20;0.50;;;0.40;;
7647;SDS011;3866;48.020;11.720;2022-08-02T14:20:47;0.37;;;0.37;;
7647;SDS011;3866;48.020;11.720;2022-08-02T14:23:13;0.40;;;0.40;;
7647;SDS011;3866;48.020;11.720;2022-08-02T14:25:40;1.03;;;0.40;;
7647;SDS011;3866;48.020;11.720;2022-08-02T14:28:07;0.77;;;0.30;;
7647;SDS011;3866;48.020;11.720;2022-08-02T14:30:34;0.67;;;0.30;;
7647;SDS011;3866;48.020;11.720;2022-08-02T14:33:01;0.30;;;0.30;;
7647;SDS011;3866;48.020;11.720;2022-08-02T14:35:30;2.67;;;0.47;;
7647;SDS011;3866;48.020;11.720;2022-08-02T14:37:57;0.40;;;0.40;;
7647;SDS011;3866;48.020;11.720;2022-08-02T14:40:24;0.27;;;0.27;;
7647;SDS011;3866;48.020;11.720;2022-08-02T14:42:51;0.90;;;0.30;;
7647;SDS011;3866;48.020;11.720;2022-08-02T14:45:18;0.53;;;0.50;;
7647;SDS011;3866;48.020;11.720;2022-08-02T14:47:46;0.30;;;0.30;;
7647;SDS011;3866;48.020;11.720;2022-08-02T14:50:13;0.50;;;0.50;;
7647;SDS011;3866;48.020;11.720;2022-08-02T14:52:43;0.50;;;0.50;;
7647;SDS011;3866;48.020;11.720;2022-08-02T14:55:11;0.70;;;0.40;;
7647;SDS011;3866;48.020;11.720;2022-08-02T14:57:38;1.57;;;0.40;;
7647;SDS011;3866;48.020;11.720;2022-08-02T15:00:05;2.43;;;0.33;;
7647;SDS011;3866;48.020;11.720;2022-08-02T15:02:33;1.13;;;0.50;;
7647;SDS011;3866;48.020;11.720;2022-08-02T15:05:00;0.40;;;0.40;;
7647;SDS011;3866;48.020;11.720;2022-08-02T15:07:27;0.60;;;0.37;;
7647;SDS011;3866;48.020;11.720;2022-08-02T15:09:55;0.60;;;0.30;;
7647;SDS011;3866;48.020;11.720;2022-08-02T15:12:22;0.70;;;0.40;;
7647;SDS011;3866;48.020;11.720;2022-08-02T15:14:49;1.30;;;0.80;;
7647;SDS011;3866;48.020;11.720;2022-08-02T15:17:17;0.20;;;0.20;;